createdAt,value
2022-09-24T00:01:12.748Z,100428.41
2022-09-24T00:04:18.861Z,100424.06
2022-09-24T00:07:22.705Z,100419.63
2022-09-24T00:10:25.166Z,100415.91
2022-09-24T00:13:27.856Z,100412.38
2022-09-24T00:16:33.906Z,100410.81
2022-09-24T00:19:36.544Z,100411.66
2022-09-24T00:22:40.363Z,100400.91
2022-09-24T00:26:00.884Z,100400.97
2022-09-24T00:29:03.788Z,100401.69
2022-09-24T00:32:07.352Z,100399.28
2022-09-24T00:35:10.140Z,100400.94
2022-09-24T00:38:15.680Z,100397.06
2022-09-24T00:41:20.012Z,100394.31
2022-09-24T00:44:54.057Z,100394.88
2022-09-24T00:47:57.500Z,100388.41
2022-09-24T00:51:00.821Z,100389.44
2022-09-24T00:54:10.049Z,100392.94
2022-09-24T00:57:13.130Z,100383.69
2022-09-24T01:00:16.017Z,100386.94
2022-09-24T01:03:22.445Z,100385.97
2022-09-24T01:06:26.199Z,100385.78
2022-09-24T01:09:30.419Z,100384.25
2022-09-24T01:12:41.333Z,100385.78
2022-09-24T01:15:49.941Z,100384.94
2022-09-24T01:19:00.762Z,100373.72
2022-09-24T01:22:07.299Z,100376.41
2022-09-24T01:25:20.652Z,100378.19
2022-09-24T01:28:35.626Z,100370.69
2022-09-24T01:31:47.023Z,100370.59
2022-09-24T01:34:53.677Z,100358.22
2022-09-24T01:38:01.718Z,100359.06
2022-09-24T01:41:05.425Z,100342.59
2022-09-24T01:44:08.006Z,100348.97
2022-09-24T01:47:18.457Z,100349.81
2022-09-24T01:50:21.169Z,100346.25
2022-09-24T01:53:28.028Z,100343.38
2022-09-24T01:56:35.645Z,100333.59
2022-09-24T01:59:44.105Z,100335.91
2022-09-24T02:02:52.013Z,100338.53
2022-09-24T02:06:00.384Z,100339.44
2022-09-24T02:09:03.238Z,100330.56
2022-09-24T02:12:10.923Z,100335.06
2022-09-24T02:15:17.840Z,100332.72
2022-09-24T02:18:28.518Z,100330.34
2022-09-24T02:21:34.369Z,100326.16
2022-09-24T02:24:44.661Z,100333.06
2022-09-24T02:27:47.609Z,100331.13
2022-09-24T02:30:57.159Z,100318.56
2022-09-24T02:34:24.821Z,100314.88
2022-09-24T02:37:27.285Z,100320.97
2022-09-24T02:40:30.035Z,100318.47
2022-09-24T02:43:35.745Z,100316.16
2022-09-24T02:46:42.045Z,100320.66
2022-09-24T02:49:45.879Z,100312.56
2022-09-24T02:52:48.332Z,100315.22
2022-09-24T02:55:50.794Z,100309.69
2022-09-24T02:58:53.404Z,100305.91
2022-09-24T03:01:56.035Z,100310.09
2022-09-24T03:04:59.937Z,100297.56
2022-09-24T03:08:02.908Z,100320.31
2022-09-24T03:11:05.609Z,100308.03
2022-09-24T03:14:08.344Z,100312.56
2022-09-24T03:17:10.843Z,100304.72
2022-09-24T03:20:14.927Z,100309.91
2022-09-24T03:23:19.225Z,100315.28
2022-09-24T03:26:21.892Z,100315.03
2022-09-24T03:29:44.388Z,100309.81
2022-09-24T03:32:47.876Z,100308.34
2022-09-24T03:35:56.540Z,100299.78
2022-09-24T03:38:59.061Z,100302.63
2022-09-24T03:42:01.534Z,100297.13
2022-09-24T03:45:04.206Z,100301.47
2022-09-24T03:48:06.905Z,100304.81
2022-09-24T03:51:12.059Z,100301.16
2022-09-24T03:54:14.508Z,100290.50
2022-09-24T03:57:17.120Z,100287.00
2022-09-24T04:00:19.624Z,100292.28
2022-09-24T04:03:22.600Z,100289.97
2022-09-24T04:06:27.054Z,100282.91
2022-09-24T04:09:29.600Z,100288.59
2022-09-24T04:12:32.067Z,100286.91
2022-09-24T04:15:34.550Z,100286.50
2022-09-24T04:18:39.242Z,100289.13
2022-09-24T04:21:43.359Z,100289.22
2022-09-24T04:24:46.135Z,100289.13
2022-09-24T04:27:53.444Z,100288.72
2022-09-24T04:30:56.025Z,100284.38
2022-09-24T04:33:58.838Z,100286.88
2022-09-24T04:37:02.680Z,100287.81
2022-09-24T04:40:07.204Z,100281.59
2022-09-24T04:43:09.753Z,100284.38
2022-09-24T04:46:12.923Z,100284.56
2022-09-24T04:49:15.585Z,100280.97
2022-09-24T04:52:19.422Z,100281.06
2022-09-24T04:55:22.278Z,100284.78
2022-09-24T04:58:24.755Z,100289.13
2022-09-24T05:01:27.646Z,100286.56
2022-09-24T05:04:30.268Z,100286.06
2022-09-24T05:07:34.096Z,100282.19
2022-09-24T05:10:36.568Z,100286.59
2022-09-24T05:13:39.029Z,100287.53
2022-09-24T05:16:41.543Z,100286.69
2022-09-24T05:19:44.125Z,100287.22
2022-09-24T05:22:49.944Z,100285.97
2022-09-24T05:26:10.095Z,100291.16
2022-09-24T05:29:13.136Z,100287.19
2022-09-24T05:32:18.391Z,100284.13
2022-09-24T05:35:21.381Z,100282.97
2022-09-24T05:38:25.466Z,100288.94
2022-09-24T05:41:27.960Z,100297.44
2022-09-24T05:44:31.143Z,100289.97
2022-09-24T05:47:33.618Z,100294.84
2022-09-24T05:50:36.136Z,100288.38
2022-09-24T05:53:39.930Z,100296.41
2022-09-24T05:56:42.961Z,100302.13
2022-09-24T05:59:45.427Z,100299.75
2022-09-24T06:02:48.023Z,100300.94
2022-09-24T06:05:51.761Z,100307.84
2022-09-24T06:08:56.186Z,100306.09
2022-09-24T06:11:58.869Z,100304.97
2022-09-24T06:15:01.482Z,100309.56
2022-09-24T06:18:03.971Z,100312.63
2022-09-24T06:21:09.193Z,100320.22
2022-09-24T06:24:13.016Z,100316.41
2022-09-24T06:27:15.471Z,100321.91
2022-09-24T06:30:17.937Z,100318.22
2022-09-24T06:33:22.115Z,100311.72
2022-09-24T06:36:24.577Z,100308.44
2022-09-24T06:39:28.463Z,100315.34
2022-09-24T06:42:31.029Z,100305.16
2022-09-24T06:45:33.872Z,100303.47
2022-09-24T06:48:38.173Z,100301.03
2022-09-24T06:51:40.837Z,100301.72
2022-09-24T06:54:44.633Z,100305.31
2022-09-24T06:57:47.133Z,100303.31
2022-09-24T07:00:54.431Z,100303.69
2022-09-24T07:03:56.997Z,100306.00
2022-09-24T07:07:17.112Z,100315.50
2022-09-24T07:10:20.931Z,100311.13
2022-09-24T07:13:23.622Z,100313.38
2022-09-24T07:16:26.119Z,100313.94
2022-09-24T07:19:28.689Z,100320.47
2022-09-24T07:22:31.468Z,100326.13
2022-09-24T07:25:35.826Z,100323.44
2022-09-24T07:28:38.289Z,100330.78
2022-09-24T07:31:40.789Z,100325.84
2022-09-24T07:34:43.283Z,100333.88
2022-09-24T07:37:45.761Z,100336.09
2022-09-24T07:40:49.768Z,100340.88
2022-09-24T07:43:52.270Z,100343.44
2022-09-24T07:46:55.335Z,100346.81
2022-09-24T07:49:57.805Z,100350.53
2022-09-24T07:53:01.157Z,100356.72
2022-09-24T07:56:07.636Z,100356.25
2022-09-24T07:59:11.253Z,100360.63
2022-09-24T08:02:17.669Z,100363.47
2022-09-24T08:05:20.485Z,100365.78
2022-09-24T08:08:25.234Z,100362.66
2022-09-24T08:11:29.919Z,100358.41
2022-09-24T08:14:32.530Z,100365.03
2022-09-24T08:17:35.039Z,100369.50
2022-09-24T08:20:38.884Z,100378.31
2022-09-24T08:23:41.457Z,100372.06
2022-09-24T08:26:45.265Z,100374.94
2022-09-24T08:29:48.319Z,100374.13
2022-09-24T08:32:50.843Z,100373.88
2022-09-24T08:35:53.361Z,100371.22
2022-09-24T08:38:56.108Z,100380.09
2022-09-24T08:42:04.537Z,100378.38
2022-09-24T08:45:27.671Z,100379.50
2022-09-24T08:48:35.360Z,100378.38
2022-09-24T08:51:46.157Z,100370.84
2022-09-24T08:54:52.093Z,100369.53
2022-09-24T08:58:04.231Z,100374.03
2022-09-24T09:01:17.200Z,100371.25
2022-09-24T09:04:27.474Z,100367.38
2022-09-24T09:07:33.397Z,100372.59
2022-09-24T09:10:39.792Z,100379.09
2022-09-24T09:13:50.761Z,100383.25
2022-09-24T09:16:57.066Z,100386.19
2022-09-24T09:20:02.527Z,100384.13
2022-09-24T09:23:14.463Z,100382.88
2022-09-24T09:26:18.332Z,100382.94
2022-09-24T09:29:25.489Z,100382.38
2022-09-24T09:32:45.327Z,100376.47
2022-09-24T09:35:54.079Z,100369.59
2022-09-24T09:39:04.560Z,100363.47
2022-09-24T09:42:21.958Z,100361.19
2022-09-24T09:45:33.471Z,100359.66
2022-09-24T09:48:45.687Z,100356.84
2022-09-24T09:51:49.259Z,100354.91
2022-09-24T09:54:52.111Z,100364.16
2022-09-24T09:58:02.116Z,100354.56
2022-09-24T10:01:08.334Z,100361.28
2022-09-24T10:04:28.261Z,100357.53
2022-09-24T10:07:31.991Z,100359.78
2022-09-24T10:10:34.456Z,100355.41
2022-09-24T10:13:37.061Z,100356.53
2022-09-24T10:16:43.620Z,100353.72
2022-09-24T10:19:47.881Z,100353.94
2022-09-24T10:22:53.471Z,100348.81
2022-09-24T10:26:00.451Z,100355.56
2022-09-24T10:29:21.139Z,100347.88
2022-09-24T10:32:29.497Z,100356.41
2022-09-24T10:35:35.641Z,100347.91
2022-09-24T10:38:38.198Z,100351.00
2022-09-24T10:41:47.541Z,100357.47
2022-09-24T10:44:52.836Z,100349.03
2022-09-24T10:48:08.169Z,100346.66
2022-09-24T10:51:25.336Z,100353.38
2022-09-24T10:54:49.891Z,100346.53
2022-09-24T10:57:59.743Z,100349.19
2022-09-24T11:01:15.396Z,100352.03
2022-09-24T11:04:39.842Z,100347.38
2022-09-24T11:08:05.365Z,100350.91
2022-09-24T11:11:19.466Z,100355.25
2022-09-24T11:14:38.581Z,100344.44
2022-09-24T11:17:50.615Z,100346.50
2022-09-24T11:21:04.157Z,100341.09
2022-09-24T11:24:32.813Z,100341.56
2022-09-24T11:27:52.521Z,100343.25
2022-09-24T11:31:07.626Z,100341.75
2022-09-24T11:34:29.357Z,100337.69
2022-09-24T11:37:48.055Z,100335.59
2022-09-24T11:41:10.250Z,100338.78
2022-09-24T11:44:29.430Z,100339.25
2022-09-24T11:47:45.088Z,100340.47
2022-09-24T11:51:00.712Z,100339.94
2022-09-24T11:54:13.706Z,100336.59
2022-09-24T11:57:22.002Z,100342.16
2022-09-24T12:00:29.624Z,100339.53
2022-09-24T12:03:42.102Z,100341.56
2022-09-24T12:06:54.195Z,100349.59
2022-09-24T12:10:01.922Z,100350.97
2022-09-24T12:13:13.811Z,100349.78
2022-09-24T12:16:20.138Z,100355.41
2022-09-24T12:19:27.784Z,100347.16
2022-09-24T12:22:34.014Z,100347.66
2022-09-24T12:25:45.080Z,100355.38
2022-09-24T12:29:12.581Z,100355.09
2022-09-24T12:32:38.626Z,100352.75
2022-09-24T12:35:53.999Z,100353.69
2022-09-24T12:39:03.414Z,100348.53
2022-09-24T12:42:09.649Z,100346.28
2022-09-24T12:45:16.869Z,100345.47
2022-09-24T12:48:26.832Z,100340.06
2022-09-24T12:51:37.868Z,100336.81
2022-09-24T12:54:40.432Z,100335.91
2022-09-24T12:57:52.063Z,100340.31
2022-09-24T13:01:07.284Z,100336.34
2022-09-24T13:04:30.198Z,100336.44
2022-09-24T13:07:36.263Z,100333.69
2022-09-24T13:10:38.739Z,100326.69
2022-09-24T13:13:44.842Z,100327.38
2022-09-24T13:16:50.023Z,100327.94
2022-09-24T13:19:59.261Z,100325.94
2022-09-24T13:23:14.481Z,100330.78
2022-09-24T13:26:33.734Z,100321.56
2022-09-24T13:29:41.416Z,100326.28
2022-09-24T13:32:50.067Z,100325.63
2022-09-24T13:36:05.737Z,100321.56
2022-09-24T13:39:16.229Z,100326.13
2022-09-24T13:42:26.410Z,100322.91
2022-09-24T13:45:31.452Z,100319.63
2022-09-24T13:48:38.247Z,100325.63
2022-09-24T13:51:42.431Z,100316.34
2022-09-24T13:54:52.059Z,100314.97
2022-09-24T13:57:54.585Z,100317.66
2022-09-24T14:01:01.453Z,100309.16
2022-09-24T14:04:06.372Z,100305.31
2022-09-24T14:07:09.475Z,100309.50
2022-09-24T14:10:15.299Z,100301.94
2022-09-24T14:13:21.770Z,100310.78
2022-09-24T14:16:26.508Z,100309.81
2022-09-24T14:19:29.100Z,100313.06
2022-09-24T14:22:37.540Z,100306.69
2022-09-24T14:25:40.428Z,100311.88
2022-09-24T14:28:43.320Z,100312.22
2022-09-24T14:31:50.483Z,100315.88
2022-09-24T14:34:54.827Z,100310.66
2022-09-24T14:38:01.586Z,100314.66
2022-09-24T14:41:08.892Z,100306.59
2022-09-24T14:44:24.192Z,100310.84
2022-09-24T14:47:30.045Z,100315.63
2022-09-24T14:50:38.615Z,100312.50
2022-09-24T14:53:41.095Z,100309.94
2022-09-24T14:56:43.613Z,100308.41
2022-09-24T14:59:47.668Z,100313.16
2022-09-24T15:02:57.156Z,100309.75
2022-09-24T15:06:08.999Z,100312.81
2022-09-24T15:09:22.008Z,100312.94
2022-09-24T15:12:30.859Z,100310.25
2022-09-24T15:15:33.418Z,100307.50
2022-09-24T15:18:37.256Z,100309.19
2022-09-24T15:21:39.836Z,100307.88
2022-09-24T15:24:42.310Z,100309.06
2022-09-24T15:27:45.936Z,100301.91
2022-09-24T15:30:48.500Z,100310.19
2022-09-24T15:33:52.515Z,100300.97
2022-09-24T15:36:59.113Z,100303.66
2022-09-24T15:40:16.615Z,100309.69
2022-09-24T15:43:24.210Z,100308.47
2022-09-24T15:46:27.310Z,100311.50
2022-09-24T15:49:31.165Z,100307.75
2022-09-24T15:52:34.719Z,100309.09
2022-09-24T15:55:37.609Z,100306.41
2022-09-24T15:58:40.117Z,100310.66
2022-09-24T16:01:43.052Z,100308.44
2022-09-24T16:04:46.882Z,100313.84
2022-09-24T16:07:49.385Z,100309.94
2022-09-24T16:10:52.264Z,100307.84
2022-09-24T16:13:54.731Z,100313.88
2022-09-24T16:16:57.278Z,100314.22
2022-09-24T16:20:01.196Z,100315.72
2022-09-24T16:23:03.661Z,100306.75
2022-09-24T16:26:06.560Z,100321.34
2022-09-24T16:29:11.890Z,100316.56
2022-09-24T16:32:14.825Z,100322.31
2022-09-24T16:35:19.337Z,100322.63
2022-09-24T16:38:23.116Z,100322.00
2022-09-24T16:41:25.903Z,100317.47
2022-09-24T16:44:28.391Z,100319.59
2022-09-24T16:47:30.923Z,100321.59
2022-09-24T16:50:35.289Z,100322.47
2022-09-24T16:53:38.423Z,100322.28
2022-09-24T16:56:41.158Z,100328.44
2022-09-24T16:59:43.623Z,100319.28
2022-09-24T17:02:46.239Z,100323.75
2022-09-24T17:05:50.038Z,100322.06
2022-09-24T17:09:10.314Z,100317.91
2022-09-24T17:12:13.099Z,100323.56
2022-09-24T17:15:18.917Z,100320.25
2022-09-24T17:18:21.719Z,100326.66
2022-09-24T17:21:25.692Z,100326.75
2022-09-24T17:24:28.425Z,100321.34
2022-09-24T17:27:32.038Z,100325.72
2022-09-24T17:30:34.483Z,100333.63
2022-09-24T17:33:44.587Z,100326.75
2022-09-24T17:36:48.752Z,100326.97
2022-09-24T17:39:51.417Z,100330.56
2022-09-24T17:42:54.080Z,100326.22
2022-09-24T17:45:57.462Z,100325.59
2022-09-24T17:49:02.712Z,100323.38
2022-09-24T17:52:06.556Z,100329.16
2022-09-24T17:55:11.763Z,100331.50
2022-09-24T17:58:14.249Z,100333.63
2022-09-24T18:01:18.897Z,100338.94
2022-09-24T18:04:22.504Z,100343.06
2022-09-24T18:07:26.348Z,100349.53
2022-09-24T18:10:28.832Z,100352.56
2022-09-24T18:13:34.822Z,100351.72
2022-09-24T18:16:37.297Z,100353.69
2022-09-24T18:19:39.776Z,100359.22
2022-09-24T18:22:43.695Z,100354.84
2022-09-24T18:25:46.158Z,100355.03
2022-09-24T18:28:50.810Z,100357.69
2022-09-24T18:31:53.308Z,100363.91
2022-09-24T18:34:55.787Z,100372.94
2022-09-24T18:37:59.663Z,100370.03
2022-09-24T18:41:07.092Z,100365.31
2022-09-24T18:44:10.492Z,100369.31
2022-09-24T18:47:14.742Z,100369.88
2022-09-24T18:50:17.413Z,100375.06
2022-09-24T18:53:21.222Z,100369.56
2022-09-24T18:56:25.078Z,100373.94
2022-09-24T18:59:29.112Z,100370.72
2022-09-24T19:02:31.716Z,100375.19
2022-09-24T19:05:34.950Z,100371.13
2022-09-24T19:08:38.750Z,100371.13
2022-09-24T19:11:42.150Z,100369.81
2022-09-24T19:14:44.741Z,100371.53
2022-09-24T19:17:48.924Z,100368.03
2022-09-24T19:20:51.388Z,100369.09
2022-09-24T19:23:57.353Z,100362.81
2022-09-24T19:26:59.837Z,100368.31
2022-09-24T19:30:02.319Z,100366.63
2022-09-24T19:33:04.990Z,100368.53
2022-09-24T19:36:08.135Z,100370.31
2022-09-24T19:39:14.023Z,100361.72
2022-09-24T19:42:16.527Z,100367.28
2022-09-24T19:45:19.014Z,100363.34
2022-09-24T19:48:21.508Z,100362.03
2022-09-24T19:51:25.757Z,100366.34
2022-09-24T19:54:29.749Z,100364.66
2022-09-24T19:57:34.960Z,100357.94
2022-09-24T20:00:38.776Z,100363.25
2022-09-24T20:03:42.867Z,100353.59
2022-09-24T20:06:45.488Z,100356.53
2022-09-24T20:09:49.272Z,100356.53
2022-09-24T20:12:54.422Z,100353.13
2022-09-24T20:15:59.258Z,100358.72
2022-09-24T20:19:03.229Z,100366.78
2022-09-24T20:22:08.938Z,100361.09
2022-09-24T20:25:13.655Z,100365.47
2022-09-24T20:28:16.505Z,100365.75
2022-09-24T20:31:20.838Z,100354.38
2022-09-24T20:34:28.413Z,100353.34
2022-09-24T20:37:30.916Z,100354.03
2022-09-24T20:40:36.534Z,100357.69
2022-09-24T20:43:41.680Z,100355.34
2022-09-24T20:46:44.206Z,100356.19
2022-09-24T20:49:46.849Z,100358.81
2022-09-24T20:52:49.355Z,100358.25
2022-09-24T20:55:55.878Z,100357.03
2022-09-24T20:58:58.714Z,100357.13
2022-09-24T21:02:01.361Z,100358.81
2022-09-24T21:05:03.846Z,100346.44
2022-09-24T21:08:08.931Z,100356.19
2022-09-24T21:11:16.059Z,100348.34
2022-09-24T21:14:19.281Z,100345.91
2022-09-24T21:17:22.006Z,100346.28
2022-09-24T21:20:24.587Z,100345.78
2022-09-24T21:23:27.109Z,100343.13
2022-09-24T21:26:32.114Z,100336.59
2022-09-24T21:29:34.586Z,100341.44
2022-09-24T21:32:38.741Z,100338.03
2022-09-24T21:35:41.217Z,100338.88
2022-09-24T21:38:43.816Z,100336.25
2022-09-24T21:41:49.967Z,100338.50
2022-09-24T21:44:53.199Z,100332.47
2022-09-24T21:47:55.692Z,100341.25
2022-09-24T21:51:03.658Z,100342.56
2022-09-24T21:54:08.527Z,100338.22
2022-09-24T21:57:12.334Z,100340.03
2022-09-24T22:00:15.626Z,100349.78
2022-09-24T22:03:20.681Z,100340.03
2022-09-24T22:06:25.037Z,100339.25
2022-09-24T22:09:27.646Z,100342.09
2022-09-24T22:12:31.978Z,100340.03
2022-09-24T22:15:34.598Z,100346.81
2022-09-24T22:18:37.689Z,100338.00
2022-09-24T22:21:40.546Z,100339.81
2022-09-24T22:24:43.021Z,100342.56
2022-09-24T22:27:46.830Z,100336.44
2022-09-24T22:30:49.326Z,100332.34
2022-09-24T22:34:10.119Z,100333.13
2022-09-24T22:37:12.708Z,100331.63
2022-09-24T22:40:15.334Z,100335.78
2022-09-24T22:43:19.418Z,100335.22
2022-09-24T22:46:26.926Z,100331.72
2022-09-24T22:49:29.686Z,100329.16
2022-09-24T22:52:32.211Z,100320.34
2022-09-24T22:55:34.665Z,100322.13
2022-09-24T22:58:39.949Z,100319.59
2022-09-24T23:01:44.391Z,100322.34
2022-09-24T23:04:47.114Z,100313.94
2022-09-24T23:07:49.693Z,100316.47
2022-09-24T23:10:52.190Z,100324.19
2022-09-24T23:13:57.510Z,100317.81
2022-09-24T23:17:00.047Z,100319.16
2022-09-24T23:20:03.065Z,100313.81
2022-09-24T23:23:05.528Z,100315.69
2022-09-24T23:26:16.291Z,100321.66
2022-09-24T23:29:20.675Z,100314.66
2022-09-24T23:32:23.145Z,100314.66
2022-09-24T23:35:25.773Z,100319.16
2022-09-24T23:38:28.577Z,100315.69
2022-09-24T23:41:31.801Z,100308.00
2022-09-24T23:44:36.151Z,100312.28
2022-09-24T23:47:38.637Z,100310.38
2022-09-24T23:50:41.346Z,100311.06
2022-09-24T23:53:43.833Z,100313.72
2022-09-24T23:56:46.329Z,100302.34
2022-09-24T23:59:51.443Z,100303.50
